Time;durP1;ratioP1;P1;durP2;ratioP2;P2;SDS_P1;SDS_P2;PMS_P1;PMS_P2;Temp;Humidity;BMP_temperature;BMP_pressure;BME280_temperature;BME280_humidity;BME280_pressure;Samples;Min_cycle;Max_cycle;Signal;HPM_P1;HPM_P2
2022/03/04 00:02:12;;;;;;;27.42;16.58;;;3.10;51.50;;;;;;5110680;28;20122;-75
2022/03/04 00:04:38;;;;;;;31.35;17.10;;;3.10;51.70;;;;;;5112609;28;20111;-75
2022/03/04 00:07:05;;;;;;;27.50;16.30;;;3.10;51.60;;;;;;5112492;28;20613;-75
2022/03/04 00:09:31;;;;;;;26.30;15.52;;;3.10;51.60;;;;;;5112008;28;20028;-74
2022/03/04 00:11:57;;;;;;;25.58;15.82;;;3.00;51.80;;;;;;5112711;28;20020;-75
2022/03/04 00:14:24;;;;;;;25.30;16.10;;;3.00;52.10;;;;;;5111880;28;20366;-74
2022/03/04 00:16:51;;;;;;;29.13;16.40;;;3.00;52.20;;;;;;5112315;28;20351;-75
2022/03/04 00:19:17;;;;;;;29.95;15.80;;;3.00;52.30;;;;;;5111608;28;20495;-75
2022/03/04 00:21:46;;;;;;;26.20;16.50;;;3.00;52.20;;;;;;5112301;28;20385;-75
2022/03/04 00:24:12;;;;;;;28.27;16.63;;;3.00;52.30;;;;;;5111699;28;20163;-74
2022/03/04 00:26:39;;;;;;;27.02;16.17;;;3.00;52.20;;;;;;5112013;28;20144;-75
2022/03/04 00:29:06;;;;;;;33.30;17.42;;;2.90;52.40;;;;;;5111481;28;20095;-74
2022/03/04 00:31:33;;;;;;;26.13;16.63;;;3.00;52.50;;;;;;5110830;28;20441;-75
2022/03/04 00:34:00;;;;;;;27.75;16.85;;;2.90;52.30;;;;;;5112708;28;20028;-75
2022/03/04 00:36:27;;;;;;;31.58;17.58;;;2.90;52.60;;;;;;5111797;28;20032;-74
2022/03/04 00:38:54;;;;;;;29.40;18.42;;;2.90;52.60;;;;;;5112452;28;20073;-74
2022/03/04 00:41:22;;;;;;;34.88;18.90;;;2.90;52.90;;;;;;5111679;28;20034;-75
2022/03/04 00:43:49;;;;;;;30.63;18.45;;;3.00;53.00;;;;;;5112179;28;20440;-75
2022/03/04 00:46:16;;;;;;;30.67;18.05;;;3.00;53.10;;;;;;5111495;28;20122;-75
2022/03/04 00:48:43;;;;;;;32.63;19.10;;;3.00;53.10;;;;;;5112159;28;20028;-75
2022/03/04 00:51:10;;;;;;;29.02;17.60;;;2.90;52.90;;;;;;5112154;28;20149;-75
2022/03/04 00:53:36;;;;;;;31.27;18.73;;;3.00;53.10;;;;;;5111465;28;20024;-75
2022/03/04 00:56:02;;;;;;;28.63;17.80;;;2.90;53.10;;;;;;5112069;28;20146;-75
2022/03/04 00:58:28;;;;;;;31.30;18.38;;;3.00;53.20;;;;;;5111408;28;20453;-74
2022/03/04 01:00:54;;;;;;;30.10;18.50;;;2.90;53.00;;;;;;5112030;28;20034;-75
2022/03/04 01:03:20;;;;;;;30.92;17.75;;;3.00;53.00;;;;;;5115477;28;20032;-74
2022/03/04 01:05:46;;;;;;;30.50;17.83;;;3.00;52.80;;;;;;5115319;28;20035;-74
2022/03/04 01:08:11;;;;;;;30.95;18.33;;;2.90;52.70;;;;;;5115754;28;20023;-76
2022/03/04 01:10:37;;;;;;;31.73;17.45;;;2.90;52.60;;;;;;5115143;28;20047;-75
2022/03/04 01:13:03;;;;;;;27.40;16.80;;;2.80;52.50;;;;;;5115684;28;20028;-74
2022/03/04 01:15:29;;;;;;;31.58;18.13;;;2.80;52.50;;;;;;5114674;28;20050;-74
2022/03/04 01:17:55;;;;;;;33.13;18.55;;;2.80;52.50;;;;;;5115516;28;20024;-76
2022/03/04 01:20:21;;;;;;;28.55;17.60;;;2.80;52.50;;;;;;5114996;28;20023;-76
2022/03/04 01:22:47;;;;;;;37.58;17.98;;;2.80;52.60;;;;;;5115460;28;20093;-76
2022/03/04 01:25:13;;;;;;;29.95;17.55;;;2.70;52.50;;;;;;5115628;28;20441;-75
2022/03/04 01:27:39;;;;;;;30.92;18.90;;;2.70;52.60;;;;;;5114577;28;20023;-75
2022/03/04 01:30:06;;;;;;;31.25;17.17;;;2.70;52.80;;;;;;5115286;28;20016;-75
2022/03/04 01:32:32;;;;;;;30.63;18.10;;;2.60;52.70;;;;;;5114420;28;20055;-74
2022/03/04 01:34:58;;;;;;;30.45;17.75;;;2.60;52.80;;;;;;5114879;28;20426;-75
2022/03/04 01:37:24;;;;;;;29.80;17.25;;;2.70;52.70;;;;;;5114461;28;20149;-74
2022/03/04 01:39:50;;;;;;;31.02;17.73;;;2.60;52.80;;;;;;5114377;28;20019;-74
2022/03/04 01:42:17;;;;;;;30.73;18.25;;;2.70;52.60;;;;;;5114790;28;20020;-74
2022/03/04 01:44:43;;;;;;;30.70;17.65;;;2.60;52.30;;;;;;5115298;28;20031;-75
2022/03/04 01:47:09;;;;;;;27.30;16.80;;;2.60;52.50;;;;;;5114725;28;20382;-75
2022/03/04 01:49:53;;;;;;;32.38;17.75;;;2.70;52.50;;;;;;5114015;28;20464;-75
2022/03/04 01:52:20;;;;;;;31.52;18.27;;;2.70;52.50;;;;;;5113791;28;20452;-74
2022/03/04 01:55:05;;;;;;;32.35;17.77;;;2.70;52.60;;;;;;5114804;28;20477;-74
2022/03/04 01:57:31;;;;;;;32.53;16.67;;;2.70;52.70;;;;;;5114554;28;20031;-75
2022/03/04 02:00:15;;;;;;;29.85;17.80;;;2.70;52.80;;;;;;5114651;28;20049;-75
2022/03/04 02:02:42;;;;;;;33.38;18.23;;;2.70;52.70;;;;;;5114224;28;20101;-75
2022/03/04 02:05:15;;;;;;;30.85;18.40;;;2.70;53.00;;;;;;5114696;28;20035;-75
2022/03/04 02:07:41;;;;;;;31.20;19.58;;;2.70;52.90;;;;;;5113673;28;20468;-75
2022/03/04 02:10:08;;;;;;;34.83;20.40;;;2.70;53.10;;;;;;5114529;28;20031;-74
2022/03/04 02:12:35;;;;;;;32.78;20.40;;;2.70;52.90;;;;;;5113294;28;20483;-74
2022/03/04 02:15:01;;;;;;;37.33;20.67;;;2.80;53.40;;;;;;5114170;28;20412;-74
2022/03/04 02:17:27;;;;;;;32.72;20.48;;;2.80;52.80;;;;;;5113841;28;20114;-76
2022/03/04 02:19:53;;;;;;;33.65;20.05;;;2.80;52.70;;;;;;5114344;28;20095;-75
2022/03/04 02:22:19;;;;;;;38.38;21.23;;;2.80;52.80;;;;;;5113390;28;20031;-75
2022/03/04 02:24:45;;;;;;;38.92;22.42;;;2.80;52.90;;;;;;5114534;28;20020;-76
2022/03/04 02:27:11;;;;;;;36.70;21.65;;;2.90;52.90;;;;;;5114283;28;20031;-75
2022/03/04 02:29:36;;;;;;;33.17;21.13;;;2.90;52.90;;;;;;5113596;28;20111;-74
2022/03/04 02:32:03;;;;;;;36.95;22.42;;;2.90;53.00;;;;;;5114135;28;20102;-74
2022/03/04 02:34:29;;;;;;;34.67;21.45;;;2.90;53.00;;;;;;5113168;28;20187;-74
2022/03/04 02:36:55;;;;;;;36.10;22.80;;;2.90;52.90;;;;;;5113978;28;20027;-75
2022/03/04 02:39:20;;;;;;;39.97;21.73;;;2.90;53.00;;;;;;5113156;28;20096;-75
2022/03/04 02:41:46;;;;;;;34.63;22.17;;;2.90;53.20;;;;;;5113631;28;20020;-74
2022/03/04 02:44:13;;;;;;;36.28;22.00;;;2.90;53.30;;;;;;5113889;28;20058;-74
2022/03/04 02:46:39;;;;;;;37.97;23.48;;;2.90;53.30;;;;;;5112855;28;20464;-76
2022/03/04 02:49:07;;;;;;;38.17;22.73;;;2.90;53.60;;;;;;5113575;28;20043;-76
2022/03/04 02:51:33;;;;;;;48.03;28.45;;;2.90;53.40;;;;;;5113026;28;20032;-76
2022/03/04 02:53:58;;;;;;;46.85;27.90;;;2.80;54.80;;;;;;5113782;28;20531;-76
2022/03/04 02:56:24;;;;;;;48.88;27.80;;;2.80;55.40;;;;;;5113284;28;20079;-75
2022/03/04 02:58:50;;;;;;;46.80;28.60;;;2.80;55.60;;;;;;5113916;28;20035;-75
2022/03/04 03:01:16;;;;;;;52.20;29.42;;;2.70;56.10;;;;;;5113407;28;20039;-75
2022/03/04 03:03:42;;;;;;;45.28;28.48;;;2.70;56.30;;;;;;5113027;28;20467;-75
2022/03/04 03:06:08;;;;;;;46.33;28.30;;;2.60;56.90;;;;;;5113590;28;20477;-76
2022/03/04 03:08:33;;;;;;;49.25;29.23;;;2.60;57.00;;;;;;5113029;28;20024;-75
2022/03/04 03:10:59;;;;;;;49.17;29.42;;;2.60;57.20;;;;;;5113555;28;20020;-75
2022/03/04 03:13:25;;;;;;;53.63;31.05;;;2.60;57.30;;;;;;5112852;28;20504;-75
2022/03/04 03:15:51;;;;;;;54.13;32.35;;;2.60;57.60;;;;;;5113184;28;20111;-76
2022/03/04 03:18:17;;;;;;;54.55;32.13;;;2.50;57.70;;;;;;5112177;28;20023;-75
2022/03/04 03:20:43;;;;;;;54.65;33.80;;;2.50;58.60;;;;;;5112458;28;20304;-75
2022/03/04 03:23:09;;;;;;;62.20;35.15;;;2.50;59.00;;;;;;5113168;28;20028;-76
2022/03/04 03:25:35;;;;;;;54.92;32.30;;;2.50;59.70;;;;;;5112001;28;20486;-75
2022/03/04 03:28:02;;;;;;;57.70;34.95;;;2.40;59.50;;;;;;5112955;28;20036;-75
2022/03/04 03:30:28;;;;;;;60.78;36.05;;;2.40;59.50;;;;;;5112467;28;20067;-75
2022/03/04 03:32:53;;;;;;;57.17;33.42;;;2.40;59.90;;;;;;5113102;28;20047;-76
2022/03/04 03:35:19;;;;;;;58.35;33.90;;;2.40;60.30;;;;;;5113192;28;20035;-75
2022/03/04 03:37:45;;;;;;;60.20;36.15;;;2.40;60.30;;;;;;5112223;28;20031;-75
2022/03/04 03:40:12;;;;;;;59.75;34.92;;;2.40;61.20;;;;;;5112427;28;20027;-76
2022/03/04 03:42:39;;;;;;;59.03;36.58;;;2.40;61.00;;;;;;5112524;28;20196;-75
2022/03/04 03:45:06;;;;;;;62.03;37.22;;;2.30;60.80;;;;;;5112919;28;20034;-76
2022/03/04 03:47:32;;;;;;;60.75;36.55;;;2.30;61.30;;;;;;5111389;28;20111;-75
2022/03/04 03:49:58;;;;;;;68.00;39.00;;;2.30;62.00;;;;;;5111793;28;20036;-75
2022/03/04 03:52:24;;;;;;;71.00;40.75;;;2.30;62.40;;;;;;5112838;28;20099;-76
2022/03/04 03:54:50;;;;;;;74.00;42.63;;;2.20;63.00;;;;;;5112172;28;20043;-76
2022/03/04 03:57:15;;;;;;;66.55;38.65;;;2.20;63.50;;;;;;5112471;28;20048;-75
2022/03/04 03:59:41;;;;;;;75.63;40.75;;;2.10;64.10;;;;;;5112215;28;20110;-75
2022/03/04 04:02:07;;;;;;;71.13;41.22;;;2.10;64.40;;;;;;5112601;28;20023;-76
2022/03/04 04:04:34;;;;;;;73.18;43.30;;;2.00;64.70;;;;;;5112008;28;20441;-75
2022/03/04 04:07:11;;;;;;;79.13;44.05;;;2.00;65.20;;;;;;5111430;28;20529;-75
2022/03/04 04:09:37;;;;;;;79.32;42.85;;;2.00;65.90;;;;;;5112077;28;20032;-75
2022/03/04 04:12:04;;;;;;;79.95;42.40;;;2.00;66.50;;;;;;5112591;28;20085;-76
2022/03/04 04:14:29;;;;;;;75.53;42.60;;;2.00;66.70;;;;;;5111776;28;20023;-75
2022/03/04 04:16:56;;;;;;;74.28;42.45;;;2.00;66.90;;;;;;5112479;28;20085;-75
2022/03/04 04:19:23;;;;;;;76.55;42.33;;;2.00;67.00;;;;;;5112574;28;20058;-75
2022/03/04 04:21:50;;;;;;;74.35;41.60;;;2.00;67.00;;;;;;5111638;28;20429;-74
2022/03/04 04:24:16;;;;;;;71.82;40.53;;;2.00;66.60;;;;;;5112368;28;20491;-75
2022/03/04 04:27:00;;;;;;;74.30;41.30;;;2.10;66.40;;;;;;5111670;28;20027;-75
2022/03/04 04:29:26;;;;;;;75.30;40.78;;;2.00;66.20;;;;;;5112354;28;20103;-74
2022/03/04 04:31:51;;;;;;;71.55;41.78;;;2.00;66.80;;;;;;5111768;28;20051;-75
2022/03/04 04:34:17;;;;;;;73.53;42.03;;;2.10;66.60;;;;;;5112393;28;20094;-76
2022/03/04 04:36:43;;;;;;;74.20;41.63;;;2.00;66.60;;;;;;5114968;28;20100;-76
2022/03/04 04:39:08;;;;;;;71.55;41.58;;;2.10;66.90;;;;;;5116887;28;20470;-75
2022/03/04 04:41:34;;;;;;;76.07;41.80;;;2.10;66.60;;;;;;5115529;28;20380;-75
2022/03/04 04:44:00;;;;;;;76.60;43.55;;;2.00;66.50;;;;;;5116347;28;20376;-75
2022/03/04 04:46:26;;;;;;;70.20;40.90;;;2.00;66.60;;;;;;5116192;28;20036;-75
2022/03/04 04:48:52;;;;;;;73.97;43.72;;;2.00;66.70;;;;;;5115273;28;20438;-75
2022/03/04 04:51:17;;;;;;;76.50;43.60;;;2.00;66.80;;;;;;5116312;28;20035;-75
2022/03/04 04:53:44;;;;;;;78.25;44.40;;;2.00;67.00;;;;;;5115459;28;20376;-75
2022/03/04 04:56:09;;;;;;;73.97;43.15;;;2.00;67.30;;;;;;5116180;28;20472;-75
2022/03/04 04:58:35;;;;;;;75.50;42.35;;;2.00;67.50;;;;;;5115127;28;20038;-74
2022/03/04 05:01:01;;;;;;;77.90;45.05;;;2.00;67.70;;;;;;5115775;28;20030;-74
2022/03/04 05:03:27;;;;;;;80.32;42.53;;;1.90;67.90;;;;;;5115874;28;20024;-74
2022/03/04 05:05:54;;;;;;;74.63;44.45;;;2.00;68.20;;;;;;5115238;28;20035;-75
2022/03/04 05:08:20;;;;;;;73.00;43.15;;;2.00;68.50;;;;;;5115706;28;20059;-74
2022/03/04 05:10:46;;;;;;;69.60;41.50;;;1.90;68.50;;;;;;5115101;28;20461;-74
2022/03/04 05:13:12;;;;;;;72.82;42.40;;;2.00;68.50;;;;;;5115735;28;20028;-75
2022/03/04 05:15:39;;;;;;;78.90;43.30;;;2.00;68.50;;;;;;5115100;28;20027;-75
2022/03/04 05:18:05;;;;;;;74.68;43.33;;;2.00;68.30;;;;;;5115551;28;20024;-74
2022/03/04 05:20:30;;;;;;;76.80;41.50;;;2.00;68.50;;;;;;5115720;28;20033;-75
2022/03/04 05:22:56;;;;;;;77.55;42.95;;;2.00;68.50;;;;;;5115588;28;20024;-75
2022/03/04 05:25:22;;;;;;;70.57;41.30;;;2.00;68.70;;;;;;5115592;28;20098;-75
2022/03/04 05:27:47;;;;;;;78.30;43.28;;;2.00;68.60;;;;;;5114724;28;20043;-75
2022/03/04 05:30:14;;;;;;;76.18;43.85;;;2.00;68.50;;;;;;5114107;28;20530;-75
2022/03/04 05:32:39;;;;;;;72.22;41.80;;;2.00;68.60;;;;;;5114812;27;20030;-75
2022/03/04 05:35:05;;;;;;;80.75;43.08;;;2.00;68.60;;;;;;5115242;27;20027;-75
2022/03/04 05:37:32;;;;;;;75.43;42.03;;;2.00;68.30;;;;;;5115586;28;20027;-75
2022/03/04 05:39:58;;;;;;;71.15;42.13;;;2.00;68.40;;;;;;5114744;28;20028;-75
2022/03/04 05:42:24;;;;;;;76.43;43.30;;;2.10;68.50;;;;;;5114609;28;20022;-75
2022/03/04 05:44:50;;;;;;;75.15;42.53;;;2.00;68.60;;;;;;5114329;28;20032;-75
2022/03/04 05:47:15;;;;;;;76.75;42.03;;;2.00;68.80;;;;;;5113920;28;20035;-74
2022/03/04 05:49:41;;;;;;;73.38;41.67;;;2.00;68.70;;;;;;5111633;28;20036;-74
2022/03/04 05:52:07;;;;;;;69.95;41.40;;;2.10;68.80;;;;;;5115031;28;20452;-75
2022/03/04 05:54:32;;;;;;;73.40;41.83;;;2.10;69.00;;;;;;5114887;28;20052;-75
2022/03/04 05:56:58;;;;;;;71.35;41.33;;;2.10;68.60;;;;;;5113172;28;20141;-74
2022/03/04 05:59:24;;;;;;;75.78;41.78;;;2.10;68.40;;;;;;5114169;28;20031;-74
2022/03/04 06:01:50;;;;;;;73.22;39.63;;;2.10;68.60;;;;;;5113096;28;20019;-73
2022/03/04 06:04:17;;;;;;;75.10;40.53;;;2.10;68.60;;;;;;5114327;28;20024;-75
2022/03/04 06:06:42;;;;;;;73.70;39.60;;;2.00;68.40;;;;;;5114009;28;20035;-73
2022/03/04 06:09:08;;;;;;;68.65;38.88;;;2.00;68.30;;;;;;5114793;28;20028;-75
2022/03/04 06:11:33;;;;;;;66.88;38.97;;;2.00;68.60;;;;;;5114556;28;20024;-75
2022/03/04 06:13:59;;;;;;;69.93;39.95;;;2.00;68.20;;;;;;5113829;28;20038;-75
2022/03/04 06:16:25;;;;;;;64.28;37.85;;;2.00;68.60;;;;;;5114557;28;20027;-75
2022/03/04 06:18:51;;;;;;;71.10;38.05;;;2.00;68.60;;;;;;5113440;28;20484;-75
2022/03/04 06:21:17;;;;;;;68.15;37.25;;;2.00;68.20;;;;;;5113988;28;20500;-74
2022/03/04 06:23:43;;;;;;;64.15;36.75;;;2.00;68.10;;;;;;5097761;28;20024;-74
2022/03/04 06:26:09;;;;;;;65.93;37.85;;;2.00;68.40;;;;;;5093652;28;20035;-74
2022/03/04 06:28:34;;;;;;;63.50;35.78;;;2.00;68.30;;;;;;5093534;28;20134;-75
2022/03/04 06:31:00;;;;;;;63.97;34.40;;;2.00;68.40;;;;;;5092438;28;20024;-75
2022/03/04 06:33:36;;;;;;;59.72;34.15;;;1.90;68.00;;;;;;5092764;28;20030;-74
2022/03/04 06:36:07;;;;;;;56.72;32.15;;;2.00;67.90;;;;;;5093228;28;20485;-74
2022/03/04 06:38:36;;;;;;;;;;;2.00;67.50;;;;;;5093632;28;20491;-74
2022/03/04 06:41:01;;;;;;;55.95;30.75;;;1.90;66.80;;;;;;5093032;28;19955;-74
2022/03/04 06:43:27;;;;;;;53.53;30.25;;;1.90;66.50;;;;;;5093899;28;20059;-74
2022/03/04 06:45:53;;;;;;;54.03;29.77;;;1.90;66.40;;;;;;5092557;28;20465;-74
2022/03/04 06:48:21;;;;;;;54.47;27.83;;;1.90;66.50;;;;;;5093636;28;20486;-74
2022/03/04 06:50:50;;;;;;;52.47;28.02;;;1.90;66.60;;;;;;5092569;28;20540;-74
2022/03/04 06:53:17;;;;;;;51.85;29.55;;;1.90;66.00;;;;;;5093402;28;20024;-75
2022/03/04 06:55:42;;;;;;;54.53;29.33;;;1.90;66.20;;;;;;5092888;28;20048;-74
2022/03/04 06:58:08;;;;;;;54.70;31.83;;;1.90;65.90;;;;;;5092663;28;20024;-74
2022/03/04 07:00:34;;;;;;;56.40;30.83;;;1.90;65.90;;;;;;5092781;28;20032;-74
2022/03/04 07:03:00;;;;;;;53.65;30.88;;;1.90;66.00;;;;;;5092581;28;20028;-74
2022/03/04 07:05:26;;;;;;;52.28;29.48;;;1.90;66.10;;;;;;5093081;28;20478;-74
2022/03/04 07:07:53;;;;;;;52.53;29.98;;;1.90;66.10;;;;;;5092528;28;20024;-74
2022/03/04 07:10:19;;;;;;;53.55;30.23;;;1.90;66.30;;;;;;5093082;28;20392;-74
2022/03/04 07:12:46;;;;;;;54.22;29.60;;;1.90;66.20;;;;;;5092413;28;20051;-75
2022/03/04 07:15:12;;;;;;;50.90;29.73;;;1.90;66.20;;;;;;5093081;28;20107;-74
2022/03/04 07:17:37;;;;;;;55.75;30.80;;;1.90;66.10;;;;;;5092961;28;20158;-74
2022/03/04 07:20:05;;;;;;;53.67;30.23;;;1.90;66.20;;;;;;5092102;28;20085;-75
2022/03/04 07:22:31;;;;;;;51.03;29.30;;;1.90;66.30;;;;;;5093023;28;20043;-75
2022/03/04 07:24:56;;;;;;;51.13;30.48;;;1.90;66.80;;;;;;5092288;28;20021;-75
2022/03/04 07:27:22;;;;;;;50.40;28.70;;;1.90;66.60;;;;;;5092779;28;20488;-74
2022/03/04 07:29:48;;;;;;;55.45;28.83;;;2.00;66.30;;;;;;5092068;28;20032;-74
2022/03/04 07:32:13;;;;;;;53.55;29.48;;;2.10;66.10;;;;;;5092857;28;20089;-74
2022/03/04 07:34:39;;;;;;;51.00;29.10;;;2.10;66.10;;;;;;5092798;28;20031;-75
2022/03/04 07:37:05;;;;;;;53.10;29.80;;;2.10;65.90;;;;;;5092035;28;20032;-74
2022/03/04 07:39:31;;;;;;;50.63;29.15;;;2.10;65.60;;;;;;5092665;28;20024;-73
2022/03/04 07:41:57;;;;;;;49.38;28.10;;;2.10;65.90;;;;;;5092010;28;20031;-74
2022/03/04 07:44:23;;;;;;;49.35;27.33;;;2.10;66.00;;;;;;5092622;28;20020;-74
2022/03/04 07:46:49;;;;;;;50.83;29.33;;;2.10;66.00;;;;;;5091845;28;20032;-74
2022/03/04 07:49:15;;;;;;;51.65;28.90;;;2.10;66.10;;;;;;5097955;28;20020;-74
2022/03/04 07:51:41;;;;;;;55.10;30.73;;;2.10;66.10;;;;;;5112077;28;20460;-74
2022/03/04 07:54:07;;;;;;;51.65;29.77;;;2.10;66.20;;;;;;5111965;28;20027;-75
2022/03/04 07:56:33;;;;;;;58.10;32.15;;;2.10;66.20;;;;;;5112797;28;20028;-75
2022/03/04 07:58:59;;;;;;;61.50;31.50;;;2.10;66.20;;;;;;5111817;28;20479;-74
2022/03/04 08:01:24;;;;;;;52.42;31.08;;;2.20;66.40;;;;;;5112727;28;20051;-75
2022/03/04 08:03:50;;;;;;;54.33;30.85;;;2.20;66.30;;;;;;5111811;28;20396;-74
2022/03/04 08:06:16;;;;;;;59.97;31.70;;;2.20;66.50;;;;;;5112273;28;20043;-74
2022/03/04 08:08:41;;;;;;;51.60;30.80;;;2.20;66.00;;;;;;5112496;28;20038;-73
2022/03/04 08:11:07;;;;;;;55.85;30.98;;;2.20;65.40;;;;;;5116435;28;20035;-74
2022/03/04 08:13:34;;;;;;;57.38;32.35;;;2.20;65.40;;;;;;5119446;28;20084;-76
2022/03/04 08:16:00;;;;;;;56.05;32.17;;;2.10;65.60;;;;;;5118723;27;20467;-74
2022/03/04 08:18:26;;;;;;;49.70;30.35;;;2.20;66.20;;;;;;5119305;27;20024;-75
2022/03/04 08:20:51;;;;;;;50.42;30.38;;;2.30;65.70;;;;;;5118533;28;20026;-73
2022/03/04 08:23:18;;;;;;;54.88;31.95;;;2.30;65.30;;;;;;5119385;28;20035;-73
2022/03/04 08:25:44;;;;;;;52.90;30.20;;;2.30;65.10;;;;;;5117859;28;20027;-75
2022/03/04 08:28:10;;;;;;;55.72;31.17;;;2.30;65.60;;;;;;5119454;27;20016;-75
2022/03/04 08:30:36;;;;;;;51.53;31.00;;;2.30;65.70;;;;;;5119426;27;20417;-74
2022/03/04 08:33:02;;;;;;;57.45;31.52;;;2.40;65.90;;;;;;5118398;28;20032;-74
2022/03/04 08:35:28;;;;;;;51.05;32.42;;;2.40;66.00;;;;;;5119191;27;20083;-74
2022/03/04 08:37:54;;;;;;;51.72;30.25;;;2.50;65.30;;;;;;5118644;27;20035;-73
2022/03/04 08:40:38;;;;;;;53.13;30.15;;;2.60;65.20;;;;;;5119291;27;20031;-74
2022/03/04 08:43:04;;;;;;;51.55;30.45;;;2.70;64.70;;;;;;5117318;28;20372;-74
2022/03/04 08:45:29;;;;;;;48.63;30.15;;;2.80;64.60;;;;;;5118992;28;20028;-75
2022/03/04 08:47:55;;;;;;;54.20;30.33;;;2.90;64.90;;;;;;5118679;28;20028;-75
2022/03/04 08:50:21;;;;;;;56.70;31.23;;;3.10;64.10;;;;;;5118820;28;20024;-74
2022/03/04 08:52:48;;;;;;;50.53;29.45;;;3.30;63.60;;;;;;5118447;27;20034;-75
2022/03/04 08:55:17;;;;;;;51.17;29.65;;;3.60;63.60;;;;;;5118621;27;20058;-74
2022/03/04 08:57:44;;;;;;;49.05;28.20;;;3.70;60.80;;;;;;5118918;27;20101;-75
2022/03/04 09:00:10;;;;;;;45.45;27.80;;;3.90;61.30;;;;;;5118547;27;20129;-74
2022/03/04 09:02:35;;;;;;;44.60;27.17;;;4.10;59.60;;;;;;5119038;27;20160;-75
2022/03/04 09:05:02;;;;;;;43.35;27.25;;;4.30;59.20;;;;;;5118504;28;20102;-75
2022/03/04 09:07:27;;;;;;;46.97;28.92;;;4.50;58.30;;;;;;5118714;27;20037;-74
2022/03/04 09:09:53;;;;;;;43.88;26.17;;;4.60;57.40;;;;;;5118337;28;20019;-73
2022/03/04 09:12:19;;;;;;;45.30;28.40;;;4.70;56.50;;;;;;5118582;28;20023;-74
2022/03/04 09:14:45;;;;;;;43.78;27.67;;;4.80;55.80;;;;;;5118901;27;20031;-74
2022/03/04 09:17:11;;;;;;;43.13;27.33;;;5.00;55.90;;;;;;5118093;27;20031;-74
2022/03/04 09:19:37;;;;;;;44.30;27.60;;;5.10;56.30;;;;;;5118842;27;20032;-74
2022/03/04 09:22:03;;;;;;;43.00;27.17;;;5.30;55.50;;;;;;5115473;28;20102;-74
2022/03/04 09:24:29;;;;;;;44.20;28.50;;;5.40;54.50;;;;;;5115570;28;20057;-73
2022/03/04 09:26:55;;;;;;;43.42;27.05;;;5.60;54.90;;;;;;5114939;28;20028;-73
2022/03/04 09:29:20;;;;;;;44.55;27.58;;;5.70;53.50;;;;;;5115667;28;20521;-73
2022/03/04 09:31:46;;;;;;;42.30;27.30;;;5.80;53.60;;;;;;5115485;28;20020;-73
2022/03/04 09:34:12;;;;;;;51.55;29.85;;;5.80;53.40;;;;;;5114821;28;20023;-73
2022/03/04 09:36:38;;;;;;;43.40;28.20;;;5.90;52.20;;;;;;5115313;28;20028;-72
2022/03/04 09:39:04;;;;;;;47.25;29.35;;;5.90;52.70;;;;;;5114804;28;20349;-73
2022/03/04 09:41:30;;;;;;;43.30;27.80;;;6.00;53.30;;;;;;5115451;28;20414;-73
2022/03/04 09:43:57;;;;;;;49.67;29.83;;;6.10;53.70;;;;;;5114243;28;20027;-75
2022/03/04 09:46:23;;;;;;;46.58;29.42;;;6.10;51.40;;;;;;5114845;28;20035;-74
2022/03/04 09:48:52;;;;;;;49.92;29.35;;;6.10;52.20;;;;;;5114937;28;20031;-73
2022/03/04 09:51:19;;;;;;;47.17;28.98;;;6.10;51.70;;;;;;5114909;28;20032;-73
2022/03/04 09:53:45;;;;;;;43.70;29.00;;;6.10;51.50;;;;;;5114357;28;20027;-74
2022/03/04 09:56:13;;;;;;;43.45;29.25;;;6.00;51.70;;;;;;5114464;28;20287;-73
2022/03/04 09:58:39;;;;;;;46.20;29.10;;;6.10;52.30;;;;;;5115147;28;20404;-74
2022/03/04 10:01:10;;;;;;;46.28;29.45;;;6.00;52.00;;;;;;5114276;28;20429;-74
2022/03/04 10:03:45;;;;;;;45.85;29.23;;;6.00;52.10;;;;;;5114870;28;20028;-73
2022/03/04 10:06:12;;;;;;;44.72;29.38;;;6.00;51.80;;;;;;5114481;28;20092;-73
2022/03/04 10:08:45;;;;;;;47.08;28.92;;;6.00;52.20;;;;;;5114925;28;20020;-73
2022/03/04 10:11:12;;;;;;;44.30;29.33;;;6.10;52.30;;;;;;5114322;28;20089;-73
2022/03/04 10:13:45;;;;;;;42.83;29.20;;;6.20;52.30;;;;;;5114779;28;20106;-73
2022/03/04 10:16:23;;;;;;;44.33;28.17;;;6.30;52.20;;;;;;5113969;28;20492;-73
2022/03/04 10:19:04;;;;;;;43.10;28.58;;;6.40;52.70;;;;;;5114820;28;20104;-74
2022/03/04 10:21:58;;;;;;;44.22;27.20;;;6.50;51.40;;;;;;5114542;28;20020;-74
2022/03/04 10:24:38;;;;;;;47.90;28.52;;;6.60;50.60;;;;;;5114679;28;20028;-73
2022/03/04 10:27:06;;;;;;;45.80;27.00;;;6.60;50.60;;;;;;5113735;28;20122;-74
2022/03/04 10:29:34;;;;;;;40.67;27.00;;;6.70;50.40;;;;;;5114319;28;20027;-73
2022/03/04 10:32:06;;;;;;;41.50;25.15;;;6.70;50.30;;;;;;5113794;28;20073;-75
2022/03/04 10:34:53;;;;;;;42.08;26.48;;;6.60;50.70;;;;;;5114148;28;20031;-74
2022/03/04 10:37:41;;;;;;;40.78;25.80;;;6.60;50.30;;;;;;5113570;28;20027;-74
2022/03/04 10:40:18;;;;;;;44.47;27.63;;;6.50;50.40;;;;;;5112373;28;20066;-73
2022/03/04 10:42:54;;;;;;;42.70;26.10;;;6.40;50.40;;;;;;5113731;28;20024;-73
2022/03/04 10:48:18;;;;;;;41.05;25.30;;;6.40;50.40;;;;;;5113385;28;20035;-73
2022/03/04 10:50:45;;;;;;;43.93;27.57;;;6.30;50.60;;;;;;5114097;28;20035;-75
2022/03/04 10:53:14;;;;;;;40.88;27.15;;;6.20;50.80;;;;;;5113316;28;20487;-73
2022/03/04 10:55:50;;;;;;;43.47;25.45;;;6.10;50.90;;;;;;5113906;28;20047;-72
2022/03/04 10:58:27;;;;;;;43.70;26.45;;;6.00;51.50;;;;;;5112810;28;20410;-74
2022/03/04 11:00:54;;;;;;;42.00;26.83;;;6.00;51.70;;;;;;5113717;28;20030;-74
2022/03/04 11:03:24;;;;;;;43.47;24.98;;;5.90;51.70;;;;;;5112978;28;20070;-74
2022/03/04 11:05:51;;;;;;;46.45;26.10;;;5.80;51.80;;;;;;5113724;28;20019;-73
2022/03/04 11:08:17;;;;;;;38.30;23.75;;;5.80;52.00;;;;;;5112885;28;20037;-74
2022/03/04 11:10:43;;;;;;;39.67;24.38;;;5.80;52.30;;;;;;5113633;28;20020;-74
2022/03/04 11:13:10;;;;;;;44.88;25.90;;;5.70;52.80;;;;;;5112977;28;20027;-74
2022/03/04 11:15:37;;;;;;;39.22;24.60;;;5.70;52.70;;;;;;5113284;27;20475;-74
2022/03/04 11:18:08;;;;;;;40.03;23.13;;;5.70;52.80;;;;;;5113301;28;20038;-74
2022/03/04 11:20:35;;;;;;;35.50;23.58;;;5.70;52.20;;;;;;5114101;28;20024;-74
2022/03/04 11:23:01;;;;;;;36.83;22.38;;;5.70;52.00;;;;;;5113294;28;20036;-73
2022/03/04 11:25:44;;;;;;;33.63;21.20;;;5.80;51.40;;;;;;5113351;28;20030;-73
2022/03/04 11:28:11;;;;;;;36.55;22.52;;;5.70;51.40;;;;;;5112785;28;20027;-73
2022/03/04 11:31:00;;;;;;;37.90;21.92;;;5.70;51.10;;;;;;5112869;28;20028;-73
2022/03/04 11:33:35;;;;;;;32.40;22.10;;;5.70;51.40;;;;;;5113202;28;20038;-73
2022/03/04 11:36:07;;;;;;;34.45;22.70;;;5.70;51.50;;;;;;5110784;28;20543;-74
2022/03/04 11:38:47;;;;;;;37.50;22.15;;;5.80;51.50;;;;;;5112754;28;20465;-73
2022/03/04 11:41:25;;;;;;;34.85;21.95;;;5.80;51.60;;;;;;5112428;28;20030;-74
2022/03/04 11:44:31;;;;;;;34.95;22.17;;;5.80;51.40;;;;;;5113038;28;20023;-73
2022/03/04 11:47:00;;;;;;;32.30;20.60;;;5.80;51.30;;;;;;5049753;28;20041;-73
2022/03/04 11:49:47;;;;;;;36.67;22.05;;;5.80;51.10;;;;;;5100647;28;20058;-73
2022/03/04 11:52:21;;;;;;;35.00;20.88;;;5.90;51.40;;;;;;5091859;28;20187;-75
2022/03/04 11:54:49;;;;;;;29.70;20.75;;;5.90;51.40;;;;;;5092305;28;20048;-74
2022/03/04 11:57:39;;;;;;;36.75;22.95;;;5.90;51.20;;;;;;5091754;28;20031;-73
2022/03/04 12:00:10;;;;;;;34.70;22.33;;;5.90;51.70;;;;;;5091810;28;20030;-74
2022/03/04 12:02:46;;;;;;;33.72;22.45;;;5.90;51.40;;;;;;5092346;28;20028;-74
2022/03/04 12:07:56;;;;;;;29.75;21.50;;;6.00;50.70;;;;;;5092232;28;20047;-74
2022/03/04 12:10:35;;;;;;;35.08;22.35;;;6.00;50.80;;;;;;5091796;28;20032;-74
2022/03/04 12:13:05;;;;;;;36.50;22.60;;;6.00;51.20;;;;;;5091826;28;20036;-75
2022/03/04 12:15:42;;;;;;;34.53;22.90;;;6.00;51.20;;;;;;5092131;28;20020;-74
2022/03/04 12:18:25;;;;;;;31.77;22.70;;;6.00;51.10;;;;;;5091453;28;20112;-73
2022/03/04 12:20:59;;;;;;;35.10;23.42;;;6.10;51.20;;;;;;5092420;28;20028;-74
2022/03/04 12:23:36;;;;;;;32.13;21.70;;;6.10;51.20;;;;;;5091201;28;20417;-73
2022/03/04 12:26:02;;;;;;;31.63;21.98;;;6.30;51.10;;;;;;5092278;28;20036;-74
2022/03/04 12:28:31;;;;;;;33.45;22.25;;;6.40;50.20;;;;;;5092015;28;20054;-75
2022/03/04 12:31:02;;;;;;;30.85;21.45;;;6.50;50.00;;;;;;5091751;28;20034;-74
2022/03/04 12:33:35;;;;;;;30.63;20.30;;;6.50;48.80;;;;;;5091909;28;20036;-73
2022/03/04 12:36:04;;;;;;;28.15;17.70;;;6.60;48.50;;;;;;5092148;28;20042;-73
2022/03/04 12:38:38;;;;;;;30.05;19.40;;;6.70;47.70;;;;;;5091799;28;20024;-74
2022/03/04 12:41:04;;;;;;;29.25;18.23;;;6.70;47.60;;;;;;5091657;28;20029;-74
2022/03/04 12:43:29;;;;;;;25.83;18.20;;;6.70;47.70;;;;;;5092165;28;20025;-73
2022/03/04 12:45:55;;;;;;;24.83;17.98;;;6.80;47.40;;;;;;5091550;28;20020;-73
2022/03/04 12:48:22;;;;;;;27.48;18.55;;;6.90;47.10;;;;;;5091511;28;20020;-73